VTPH/HHQ METAR and TAF weather

Enter ICAO airport designator
Station Type Date Time Source
VTPH METAR 2021/01/16 03:00 UTC NOAA

VTPH 160300Z 08003KT 050V110 7000 NSC 27/19 Q1012 NOSIG


Station Type Date Time Source
VTPH Decoded METAR 2021/01/16 03:00 UTC NOAA

Hua Hin, Thailand (VTPH) 12-35N 099-57E 6M
Jan 15, 2021 - 10:00 PM EST / 2021.01.16 0300 UTC
Wind: from the E (080 degrees) at 3 MPH (3 KT) (direction variable):0
Visibility: 4 mile(s):0
Temperature: 80 F (27 C)
Dew Point: 66 F (19 C)
Relative Humidity: 61%
Pressure (altimeter): 29.88 in. Hg (1012 hPa)
ob: VTPH 160300Z 08003KT 050V110 7000 NSC 27/19 Q1012 NOSIG
cycle: 3

Station Type Date Time Source
VTPH TAF 2021/01/15 18:00 UTC NOAA

TAF VTPH 151700Z 1518/1618 20003KT 8000 FEW020

Example: see airport list